Time;durP1;ratioP1;P1;durP2;ratioP2;P2;SDS_P1;SDS_P2;PMS_P1;PMS_P2;Temp;Humidity;BMP_temperature;BMP_pressure;BME280_temperature;BME280_humidity;BME280_pressure;Samples;Min_cycle;Max_cycle;Signal;HPM_P1;HPM_P2
2020/12/07 00:02:22;;;;;;;8.00;4.67;;;;;;;;;;5053063;28;20045;-87
2020/12/07 00:04:48;;;;;;;8.27;4.77;;;;;;;;;;5036886;28;20100;-86
2020/12/07 00:07:15;;;;;;;7.80;4.83;;;;;;;;;;5035217;28;20064;-86
2020/12/07 00:09:41;;;;;;;9.23;4.03;;;;;;;;;;5035565;28;20047;-87
2020/12/07 00:12:10;;;;;;;7.37;4.10;;;;;;;;;;5034720;28;20120;-86
2020/12/07 00:14:36;;;;;;;6.67;3.97;;;;;;;;;;5034953;28;20037;-86
2020/12/07 00:17:02;;;;;;;6.53;3.67;;;;;;;;;;5035476;28;20394;-86
2020/12/07 00:19:28;;;;;;;9.13;4.27;;;;;;;;;;5035911;28;20037;-86
2020/12/07 00:21:54;;;;;;;8.63;4.07;;;;;;;;;;5027716;28;20033;-86
2020/12/07 00:24:19;;;;;;;11.27;5.00;;;;;;;;;;5036402;28;20030;-86
2020/12/07 00:26:45;;;;;;;8.43;4.80;;;;;;;;;;5017986;28;20100;-86
2020/12/07 00:29:11;;;;;;;8.40;4.63;;;;;;;;;;5044352;28;20367;-86
2020/12/07 00:31:37;;;;;;;7.47;4.60;;;;;;;;;;5036500;28;20080;-86
2020/12/07 00:34:03;;;;;;;9.43;4.73;;;;;;;;;;5039939;28;20056;-87
2020/12/07 00:36:29;;;;;;;9.90;4.57;;;;;;;;;;5046629;28;20025;-86
2020/12/07 00:38:55;;;;;;;9.83;4.30;;;;;;;;;;5024192;28;20030;-87
2020/12/07 00:41:22;;;;;;;9.33;4.20;;;;;;;;;;5017053;28;20026;-87
2020/12/07 00:43:49;;;;;;;7.10;4.20;;;;;;;;;;5026279;28;20101;-86
2020/12/07 00:46:15;;;;;;;8.57;4.27;;;;;;;;;;5050973;28;20087;-86
2020/12/07 00:48:41;;;;;;;9.97;4.00;;;;;;;;;;5033719;28;20116;-86
2020/12/07 00:51:07;;;;;;;8.70;3.87;;;;;;;;;;5034239;28;20084;-86
2020/12/07 00:53:33;;;;;;;7.67;3.70;;;;;;;;;;5028821;28;20029;-86
2020/12/07 00:55:59;;;;;;;7.10;3.63;;;;;;;;;;5038127;28;20037;-85
2020/12/07 00:58:25;;;;;;;7.73;3.90;;;;;;;;;;5035503;28;20036;-85
2020/12/07 01:00:51;;;;;;;7.43;3.87;;;;;;;;;;5042124;28;20029;-86
2020/12/07 01:03:17;;;;;;;10.80;3.97;;;;;;;;;;5038084;28;20029;-86
2020/12/07 01:05:43;;;;;;;8.27;4.83;;;;;;;;;;5033998;28;20026;-85
2020/12/07 01:08:09;;;;;;;7.70;3.97;;;;;;;;;;5033773;28;20030;-86
2020/12/07 01:10:36;;;;;;;8.47;4.50;;;;;;;;;;5020939;28;20037;-85
2020/12/07 01:13:02;;;;;;;7.17;3.87;;;;;;;;;;5019670;28;20049;-86
2020/12/07 01:15:28;;;;;;;12.37;4.40;;;;;;;;;;5014862;28;20030;-86
2020/12/07 01:17:54;;;;;;;7.17;4.20;;;;;;;;;;5030457;28;20025;-86
2020/12/07 01:20:20;;;;;;;8.53;4.37;;;;;;;;;;5049267;28;20429;-87
2020/12/07 01:22:46;;;;;;;9.70;3.67;;;;;;;;;;5049531;28;20030;-86
2020/12/07 01:25:12;;;;;;;6.93;3.80;;;;;;;;;;5046609;28;20022;-85
2020/12/07 01:27:38;;;;;;;7.00;4.00;;;;;;;;;;5033157;28;20482;-86
2020/12/07 01:30:04;;;;;;;7.40;4.00;;;;;;;;;;5015144;28;20022;-86
2020/12/07 01:32:30;;;;;;;6.70;3.90;;;;;;;;;;5015581;28;20030;-86
2020/12/07 01:34:56;;;;;;;8.60;4.70;;;;;;;;;;5013655;28;20029;-85
2020/12/07 01:37:22;;;;;;;7.47;3.77;;;;;;;;;;5022558;28;20034;-87
2020/12/07 01:39:48;;;;;;;7.97;4.27;;;;;;;;;;5037951;28;20064;-86
2020/12/07 01:42:14;;;;;;;6.23;3.70;;;;;;;;;;5029472;28;20022;-86
2020/12/07 01:44:40;;;;;;;8.03;4.50;;;;;;;;;;5046680;28;20040;-86
2020/12/07 01:47:23;;;;;;;6.63;4.00;;;;;;;;;;5049106;28;20033;-86
2020/12/07 01:49:50;;;;;;;6.67;3.60;;;;;;;;;;5031603;28;20395;-86
2020/12/07 01:52:17;;;;;;;6.73;3.90;;;;;;;;;;5033245;28;20387;-86
2020/12/07 01:54:43;;;;;;;6.97;4.20;;;;;;;;;;5031866;28;20033;-85
2020/12/07 01:57:09;;;;;;;7.30;4.33;;;;;;;;;;5029887;28;20038;-86
2020/12/07 01:59:35;;;;;;;7.03;4.23;;;;;;;;;;5030455;28;20025;-86
2020/12/07 02:02:01;;;;;;;8.10;3.97;;;;;;;;;;5029657;28;20428;-85
2020/12/07 02:04:27;;;;;;;8.10;4.43;;;;;;;;;;5030506;28;20029;-85
2020/12/07 02:06:53;;;;;;;6.73;4.00;;;;;;;;;;5013921;28;20030;-86
2020/12/07 02:09:25;;;;;;;7.17;4.13;;;;;;;;;;5045767;28;20463;-86
2020/12/07 02:11:51;;;;;;;6.18;3.75;;;;;;;;;;5045845;28;20433;-86
2020/12/07 02:14:17;;;;;;;6.47;3.30;;;;;;;;;;5047920;28;20033;-86
2020/12/07 02:16:43;;;;;;;5.60;3.73;;;;;;;;;;5032209;28;20033;-86
2020/12/07 02:19:09;;;;;;;5.87;3.40;;;;;;;;;;5031744;28;20029;-85
2020/12/07 02:21:34;;;;;;;7.00;3.30;;;;;;;;;;5031847;28;20440;-85
2020/12/07 02:24:00;;;;;;;6.07;3.10;;;;;;;;;;5032569;28;20029;-85
2020/12/07 02:26:26;;;;;;;7.70;3.73;;;;;;;;;;5032627;28;20389;-85
2020/12/07 02:28:52;;;;;;;5.67;2.97;;;;;;;;;;5032623;28;20038;-86
2020/12/07 02:31:18;;;;;;;4.90;2.50;;;;;;;;;;5032940;28;20030;-86
2020/12/07 02:33:44;;;;;;;6.13;2.90;;;;;;;;;;5026508;28;20482;-85
2020/12/07 02:36:11;;;;;;;6.30;3.40;;;;;;;;;;5031954;28;20060;-86
2020/12/07 02:38:37;;;;;;;8.40;4.23;;;;;;;;;;5032216;28;20029;-86
2020/12/07 02:41:03;;;;;;;5.87;3.23;;;;;;;;;;5032951;28;20053;-85
2020/12/07 02:43:29;;;;;;;5.60;3.27;;;;;;;;;;5031732;28;20544;-85
2020/12/07 02:45:55;;;;;;;6.67;3.30;;;;;;;;;;5048918;28;20037;-85
2020/12/07 02:48:21;;;;;;;5.60;3.00;;;;;;;;;;5033450;28;20021;-85
2020/12/07 02:50:47;;;;;;;5.57;3.30;;;;;;;;;;5049488;28;20394;-85
2020/12/07 02:53:13;;;;;;;6.80;3.37;;;;;;;;;;5048954;28;20033;-85
2020/12/07 02:55:39;;;;;;;6.33;3.40;;;;;;;;;;5032045;28;20022;-85
2020/12/07 02:58:05;;;;;;;5.70;3.30;;;;;;;;;;5029435;28;20026;-85
2020/12/07 03:00:31;;;;;;;5.63;3.33;;;;;;;;;;5047308;28;20032;-88
2020/12/07 03:02:57;;;;;;;6.57;3.47;;;;;;;;;;5043717;28;20108;-86
2020/12/07 03:05:23;;;;;;;6.70;3.00;;;;;;;;;;5049443;28;20459;-86
2020/12/07 03:07:49;;;;;;;4.87;2.77;;;;;;;;;;5051775;28;20057;-85
2020/12/07 03:10:15;;;;;;;6.07;3.20;;;;;;;;;;5036665;28;20026;-85
2020/12/07 03:12:41;;;;;;;5.50;2.87;;;;;;;;;;5051335;28;20044;-86
2020/12/07 03:15:07;;;;;;;8.00;2.70;;;;;;;;;;5056616;28;20044;-85
2020/12/07 03:17:33;;;;;;;5.97;2.90;;;;;;;;;;5056635;28;20060;-85
2020/12/07 03:19:59;;;;;;;6.33;3.17;;;;;;;;;;5055870;28;20474;-86
2020/12/07 03:22:25;;;;;;;5.20;3.03;;;;;;;;;;5055666;28;20033;-85
2020/12/07 03:24:51;;;;;;;5.53;2.97;;;;;;;;;;5053269;28;20029;-85
2020/12/07 03:27:17;;;;;;;6.27;2.87;;;;;;;;;;5037438;28;20494;-85
2020/12/07 03:29:43;;;;;;;4.90;2.80;;;;;;;;;;5036590;28;20037;-85
2020/12/07 03:32:09;;;;;;;5.63;3.40;;;;;;;;;;5036540;28;20026;-85
2020/12/07 03:34:36;;;;;;;5.20;3.07;;;;;;;;;;5048637;28;20140;-85
2020/12/07 03:37:02;;;;;;;5.83;3.10;;;;;;;;;;5056739;28;20021;-86
2020/12/07 03:39:28;;;;;;;4.97;2.87;;;;;;;;;;5057358;28;20124;-85
2020/12/07 03:41:54;;;;;;;5.33;2.83;;;;;;;;;;5056217;28;20095;-85
2020/12/07 03:44:20;;;;;;;7.83;3.43;;;;;;;;;;5055523;28;20044;-85
2020/12/07 03:46:46;;;;;;;6.23;2.80;;;;;;;;;;5054770;28;20192;-85
2020/12/07 03:49:12;;;;;;;5.87;2.97;;;;;;;;;;5055823;28;20021;-85
2020/12/07 03:51:38;;;;;;;6.87;2.93;;;;;;;;;;5053708;28;20025;-85
2020/12/07 03:54:04;;;;;;;5.33;3.00;;;;;;;;;;5040751;28;20045;-85
2020/12/07 03:56:30;;;;;;;5.60;3.27;;;;;;;;;;5050942;28;20048;-87
2020/12/07 03:58:56;;;;;;;6.27;2.83;;;;;;;;;;5038301;28;20467;-85
2020/12/07 04:01:22;;;;;;;7.03;2.97;;;;;;;;;;5055309;28;20029;-85
2020/12/07 04:03:49;;;;;;;6.67;3.30;;;;;;;;;;5059572;28;20398;-85
2020/12/07 04:06:25;;;;;;;5.50;3.50;;;;;;;;;;5057869;28;20052;-86
2020/12/07 04:08:52;;;;;;;5.77;3.20;;;;;;;;;;5039646;28;20406;-85
2020/12/07 04:11:18;;;;;;;5.23;3.07;;;;;;;;;;5031797;28;20390;-85
2020/12/07 04:13:44;;;;;;;5.87;2.93;;;;;;;;;;5031044;28;20029;-85
2020/12/07 04:16:10;;;;;;;4.97;3.17;;;;;;;;;;5030628;28;20394;-85
2020/12/07 04:18:36;;;;;;;7.00;3.33;;;;;;;;;;5064701;28;20033;-85
2020/12/07 04:21:02;;;;;;;6.73;3.37;;;;;;;;;;5055119;28;20028;-85
2020/12/07 04:23:32;;;;;;;5.57;3.30;;;;;;;;;;5054780;28;20496;-85
2020/12/07 04:25:58;;;;;;;5.93;3.23;;;;;;;;;;5055406;28;20032;-86
2020/12/07 04:28:24;;;;;;;7.53;3.20;;;;;;;;;;5054820;28;20389;-85
2020/12/07 04:30:51;;;;;;;5.90;3.37;;;;;;;;;;5054640;28;20033;-86
2020/12/07 04:33:17;;;;;;;6.23;3.13;;;;;;;;;;5054370;28;20040;-86
2020/12/07 04:35:43;;;;;;;6.13;3.40;;;;;;;;;;5055022;28;20021;-87
2020/12/07 04:38:09;;;;;;;8.90;3.47;;;;;;;;;;5055994;28;20025;-85
2020/12/07 04:40:36;;;;;;;6.10;3.50;;;;;;;;;;5054893;28;20021;-85
2020/12/07 04:43:02;;;;;;;6.87;3.80;;;;;;;;;;5054297;28;20025;-86
2020/12/07 04:45:29;;;;;;;8.10;4.20;;;;;;;;;;5054707;28;20433;-85
2020/12/07 04:47:57;;;;;;;6.73;3.50;;;;;;;;;;5054412;28;20055;-85
2020/12/07 04:50:24;;;;;;;6.50;3.60;;;;;;;;;;5053142;28;20098;-85
2020/12/07 04:52:50;;;;;;;6.10;3.50;;;;;;;;;;5053817;28;20059;-85
2020/12/07 04:55:16;;;;;;;7.97;3.80;;;;;;;;;;5043669;28;20029;-85
2020/12/07 04:57:43;;;;;;;9.57;4.33;;;;;;;;;;5015447;28;20038;-85
2020/12/07 05:00:09;;;;;;;6.47;3.60;;;;;;;;;;5030151;28;20061;-85
2020/12/07 05:02:39;;;;;;;6.50;3.80;;;;;;;;;;5030556;28;20029;-85
2020/12/07 05:05:08;;;;;;;6.37;3.70;;;;;;;;;;5016915;28;20036;-85
2020/12/07 05:07:35;;;;;;;7.27;3.40;;;;;;;;;;5032011;28;20022;-86
2020/12/07 05:10:09;;;;;;;6.93;3.77;;;;;;;;;;5016000;28;20033;-85
2020/12/07 05:12:40;;;;;;;8.07;3.63;;;;;;;;;;5030482;28;20053;-85
2020/12/07 05:15:12;;;;;;;7.50;3.50;;;;;;;;;;5046415;28;20024;-85
2020/12/07 05:17:38;;;;;;;6.97;3.35;;;;;;;;;;5053868;28;20029;-84
2020/12/07 05:20:05;;;;;;;8.77;3.70;;;;;;;;;;5053703;28;20033;-85
2020/12/07 05:22:34;;;;;;;8.97;3.73;;;;;;;;;;5053786;28;20471;-85
2020/12/07 05:25:01;;;;;;;9.07;3.73;;;;;;;;;;5033414;28;20037;-85
2020/12/07 05:27:30;;;;;;;8.67;3.47;;;;;;;;;;5032406;28;20035;-85
2020/12/07 05:30:06;;;;;;;5.23;2.97;;;;;;;;;;5033439;28;20026;-85
2020/12/07 05:32:35;;;;;;;5.33;2.97;;;;;;;;;;5034101;28;20044;-85
2020/12/07 05:35:02;;;;;;;6.20;3.23;;;;;;;;;;5031775;28;20033;-85
2020/12/07 05:37:32;;;;;;;7.23;3.30;;;;;;;;;;5032795;28;20462;-85
2020/12/07 05:40:00;;;;;;;8.07;3.20;;;;;;;;;;5031400;28;20044;-85
2020/12/07 05:42:26;;;;;;;7.13;3.67;;;;;;;;;;5031592;28;20072;-85
2020/12/07 05:44:53;;;;;;;7.00;3.20;;;;;;;;;;5031737;28;20116;-85
2020/12/07 05:47:21;;;;;;;5.03;3.00;;;;;;;;;;5031326;28;20032;-86
2020/12/07 05:49:49;;;;;;;8.00;3.87;;;;;;;;;;5031639;28;20029;-85
2020/12/07 05:52:17;;;;;;;9.23;3.10;;;;;;;;;;5031370;28;20419;-85
2020/12/07 05:54:44;;;;;;;10.03;3.43;;;;;;;;;;5030879;28;20040;-85
2020/12/07 05:57:16;;;;;;;6.63;3.10;;;;;;;;;;5030663;28;20041;-85
2020/12/07 05:59:42;;;;;;;10.87;4.80;;;;;;;;;;5047640;28;20041;-85
2020/12/07 06:02:12;;;;;;;7.33;3.77;;;;;;;;;;5047849;28;20502;-85
2020/12/07 06:04:38;;;;;;;8.47;3.53;;;;;;;;;;5031869;28;20040;-85
2020/12/07 06:07:08;;;;;;;8.83;3.73;;;;;;;;;;5030895;28;20057;-86
2020/12/07 06:09:35;;;;;;;6.57;3.80;;;;;;;;;;5047222;28;20037;-85
2020/12/07 06:12:14;;;;;;;6.90;4.20;;;;;;;;;;5063950;28;20002;-86
2020/12/07 06:14:42;;;;;;;7.23;3.77;;;;;;;;;;5037307;28;20037;-86
2020/12/07 06:17:11;;;;;;;6.83;4.07;;;;;;;;;;5050091;28;20053;-86
2020/12/07 06:19:39;;;;;;;8.97;4.77;;;;;;;;;;5045966;28;20040;-85
2020/12/07 06:22:06;;;;;;;10.30;4.97;;;;;;;;;;5045794;28;20029;-85
2020/12/07 06:24:43;;;;;;;7.40;4.43;;;;;;;;;;5044679;28;20302;-85
2020/12/07 06:27:10;;;;;;;7.80;4.40;;;;;;;;;;5045728;28;20037;-85
2020/12/07 06:29:36;;;;;;;7.33;4.03;;;;;;;;;;5026044;28;20036;-85
2020/12/07 06:32:02;;;;;;;10.90;4.30;;;;;;;;;;5036212;28;20014;-85
2020/12/07 06:34:41;;;;;;;9.27;4.87;;;;;;;;;;5036378;28;20070;-86
2020/12/07 06:37:08;;;;;;;8.70;4.40;;;;;;;;;;5038696;28;20555;-85
2020/12/07 06:39:44;;;;;;;10.20;4.80;;;;;;;;;;5034475;28;20379;-85
2020/12/07 06:42:11;;;;;;;9.63;4.63;;;;;;;;;;5045431;28;20208;-86
2020/12/07 06:44:42;;;;;;;10.47;4.67;;;;;;;;;;5016300;28;20030;-86
2020/12/07 06:47:15;;;;;;;9.50;5.13;;;;;;;;;;5036410;28;20033;-86
2020/12/07 06:52:12;;;;;;;9.27;5.43;;;;;;;;;;5016312;28;20034;-85
2020/12/07 06:57:28;;;;;;;14.87;9.03;;;;;;;;;;5039779;28;20052;-85
2020/12/07 07:00:00;;;;;;;10.07;4.90;;;;;;;;;;5053562;28;20080;-86
2020/12/07 07:02:26;;;;;;;7.78;3.72;;;;;;;;;;5047920;28;20033;-85
2020/12/07 07:04:53;;;;;;;10.43;4.67;;;;;;;;;;5051581;28;20060;-85
2020/12/07 07:07:21;;;;;;;9.17;4.27;;;;;;;;;;5030362;28;20041;-85
2020/12/07 07:09:47;;;;;;;9.50;4.77;;;;;;;;;;5042265;28;20026;-85
2020/12/07 07:12:14;;;;;;;10.53;5.10;;;;;;;;;;5038548;28;20026;-85
2020/12/07 07:14:41;;;;;;;8.43;4.90;;;;;;;;;;5031159;28;20046;-86
2020/12/07 07:17:07;;;;;;;9.47;5.27;;;;;;;;;;5033981;28;20041;-85
2020/12/07 07:19:33;;;;;;;8.17;4.63;;;;;;;;;;5033139;28;20034;-85
2020/12/07 07:22:00;;;;;;;10.30;5.20;;;;;;;;;;5031608;28;20087;-85
2020/12/07 07:24:32;;;;;;;10.00;5.53;;;;;;;;;;5027158;28;20037;-84
2020/12/07 07:27:53;;;;;;;9.73;4.90;;;;;;;;;;5041860;28;20084;-85
2020/12/07 07:29:45;;;;;;;13.03;5.10;;;;;;;;;;5028161;28;20030;-85
2020/12/07 07:32:13;;;;;;;10.17;5.00;;;;;;;;;;5050948;28;20036;-85
2020/12/07 07:34:42;;;;;;;9.87;4.90;;;;;;;;;;5050738;28;20029;-86
2020/12/07 07:37:08;;;;;;;9.37;4.83;;;;;;;;;;5050945;28;20037;-85
2020/12/07 07:39:34;;;;;;;10.47;5.10;;;;;;;;;;5053516;28;20029;-85
2020/12/07 07:42:11;;;;;;;11.07;5.43;;;;;;;;;;5034272;28;20112;-85
2020/12/07 07:44:39;;;;;;;11.00;5.00;;;;;;;;;;5049856;28;20032;-85
2020/12/07 07:47:08;;;;;;;10.40;5.57;;;;;;;;;;5049307;28;20029;-86
2020/12/07 08:16:16;;;;;;;8.97;4.70;;;;;;;;;;5033249;28;20410;-86
2020/12/07 08:18:43;;;;;;;10.63;5.40;;;;;;;;;;5048092;28;20048;-86
2020/12/07 08:21:10;;;;;;;12.50;5.73;;;;;;;;;;5047062;28;20049;-85
2020/12/07 08:23:36;;;;;;;11.80;5.73;;;;;;;;;;5048713;28;20033;-86
2020/12/07 08:26:03;;;;;;;9.83;5.70;;;;;;;;;;5048399;28;20048;-85
2020/12/07 08:28:36;;;;;;;9.87;5.37;;;;;;;;;;5032837;28;20072;-86
2020/12/07 08:31:02;;;;;;;8.93;4.87;;;;;;;;;;5054144;28;20030;-85
2020/12/07 08:33:29;;;;;;;9.40;5.07;;;;;;;;;;5065057;28;20470;-86
2020/12/07 08:35:56;;;;;;;12.40;5.17;;;;;;;;;;5044827;28;20029;-86
2020/12/07 08:38:32;;;;;;;11.00;5.63;;;;;;;;;;5052410;28;20037;-86
2020/12/07 08:41:06;;;;;;;11.83;5.50;;;;;;;;;;5033943;28;20406;-86
2020/12/07 08:43:36;;;;;;;8.40;4.90;;;;;;;;;;5038551;28;20047;-87
2020/12/07 08:53:02;;;;;;;;;;;;;;;;;;;;;
2020/12/07 11:42:18;;;;;;;5.80;3.17;;;;;;;;;;1171220;22;20333;-89
2020/12/07 11:44:45;;;;;;;6.33;3.90;;;;;;;;;;5091209;28;20047;-93
2020/12/07 11:47:13;;;;;;;7.40;4.20;;;;;;;;;;5077284;28;20036;-93
2020/12/07 11:49:39;;;;;;;6.60;3.77;;;;;;;;;;5077212;28;20020;-93
2020/12/07 16:35:28;;;;;;;8.27;4.17;;;;;;;;;;5058423;28;20067;-89
2020/12/07 17:35:02;;;;;;;9.10;4.20;;;;;;;;;;999969;22;20456;-93
2020/12/07 17:37:32;;;;;;;10.00;4.63;;;;;;;;;;5085151;28;20025;-93
